Aviation Digital Data Service (ADDS)

Output produced by METARs form (0305 UTC 18 June 2019)
found at http://www.aviationweather.gov/metar/data/
 
METAR text: VECC 180300Z 12008KT 3200 HZ SCT020 32/28 Q1000 NOSIG
Conditions at: VECC (CALCUTTA/DUM DUM, IN) observed 0300 UTC 18 June 2019
Temperature: 32.0°C (90°F)
Dewpoint: 28.0°C (82°F) [RH = 80%]
Pressure (altimeter): 29.53 inches Hg (1000.0 mb)
Winds: from the ESE (120 degrees) at 9 MPH (8 knots; 4.1 m/s)
Visibility: 1.99 miles (3.20 km)
Ceiling: at least 12,000 feet AGL
Clouds: scattered clouds at 2000 feet AGL
Weather: HZ  (haze)

METAR text: VECC 180230Z 12008KT 3000 BR SCT020 31/28 Q1000 NOSIG
Conditions at: VECC (CALCUTTA/DUM DUM, IN) observed 0230 UTC 18 June 2019
Temperature: 31.0°C (88°F)
Dewpoint: 28.0°C (82°F) [RH = 84%]
Pressure (altimeter): 29.53 inches Hg (1000.0 mb)
Winds: from the ESE (120 degrees) at 9 MPH (8 knots; 4.1 m/s)
Visibility: 1.86 miles (2.99 km)
Ceiling: at least 12,000 feet AGL
Clouds: scattered clouds at 2000 feet AGL
Weather: BR  (mist)

METAR text: VECC 180200Z 12008KT 2800 BR SCT018 31/29 Q1000 BECMG 3000 BR
Conditions at: VECC (CALCUTTA/DUM DUM, IN) observed 0200 UTC 18 June 2019
Temperature: 31.0°C (88°F)
Dewpoint: 29.0°C (84°F) [RH = 89%]
Pressure (altimeter): 29.53 inches Hg (1000.0 mb)
Winds: from the ESE (120 degrees) at 9 MPH (8 knots; 4.1 m/s)
Visibility: 1.74 miles (2.80 km)
Ceiling: at least 12,000 feet AGL
Clouds: scattered clouds at 1800 feet AGL
Weather: BR  (mist)

METAR text: VECC 180130Z 14005KT 2800 BR SCT018 SCT100 30/29 Q1000 NOSIG
Conditions at: VECC (CALCUTTA/DUM DUM, IN) observed 0130 UTC 18 June 2019
Temperature: 30.0°C (86°F)
Dewpoint: 29.0°C (84°F) [RH = 94%]
Pressure (altimeter): 29.53 inches Hg (1000.0 mb)
Winds: from the SE (140 degrees) at 6 MPH (5 knots; 2.6 m/s)
Visibility: 1.74 miles (2.80 km)
Ceiling: at least 12,000 feet AGL
Clouds: scattered clouds at 1800 feet AGL
scattered clouds at 10000 feet AGL
Weather: BR  (mist)

METAR text: VECC 180100Z 15004KT 2700 BR FEW018 SCT100 30/29 Q1000 NOSIG
Conditions at: VECC (CALCUTTA/DUM DUM, IN) observed 0100 UTC 18 June 2019
Temperature: 30.0°C (86°F)
Dewpoint: 29.0°C (84°F) [RH = 94%]
Pressure (altimeter): 29.53 inches Hg (1000.0 mb)
Winds: from the SSE (150 degrees) at 5 MPH (4 knots; 2.1 m/s)
Visibility: 1.68 miles (2.70 km)
Ceiling: at least 12,000 feet AGL
Clouds: few clouds at 1800 feet AGL
scattered clouds at 10000 feet AGL
Weather: BR  (mist)

METAR text: VECC 180030Z 13003KT 2600 BR FEW020 SCT100 29/28 Q0999 NOSIG
Conditions at: VECC (CALCUTTA/DUM DUM, IN) observed 0030 UTC 18 June 2019
Temperature: 29.0°C (84°F)
Dewpoint: 28.0°C (82°F) [RH = 94%]
Pressure (altimeter): 29.50 inches Hg (999.0 mb)
Winds: from the SE (130 degrees) at 3 MPH (3 knots; 1.5 m/s)
Visibility: 1.62 miles (2.61 km)
Ceiling: at least 12,000 feet AGL
Clouds: few clouds at 2000 feet AGL
scattered clouds at 10000 feet AGL
Weather: BR  (mist)

METAR text: VECC 180000Z 16003KT 2700 BR FEW020 SCT100 29/28 Q0999 NOSIG
Conditions at: VECC (CALCUTTA/DUM DUM, IN) observed 0000 UTC 18 June 2019
Temperature: 29.0°C (84°F)
Dewpoint: 28.0°C (82°F) [RH = 94%]
Pressure (altimeter): 29.50 inches Hg (999.0 mb)
Winds: from the SSE (160 degrees) at 3 MPH (3 knots; 1.5 m/s)
Visibility: 1.68 miles (2.70 km)
Ceiling: at least 12,000 feet AGL
Clouds: few clouds at 2000 feet AGL
scattered clouds at 10000 feet AGL
Weather: BR  (mist)

METAR text: VECC 172330Z 14004KT 3200 HZ FEW020 29/28 Q0998 NOSIG
Conditions at: VECC (CALCUTTA/DUM DUM, IN) observed 2330 UTC 17 June 2019
Temperature: 29.0°C (84°F)
Dewpoint: 28.0°C (82°F) [RH = 94%]
Pressure (altimeter): 29.47 inches Hg (998.0 mb)
Winds: from the SE (140 degrees) at 5 MPH (4 knots; 2.1 m/s)
Visibility: 1.99 miles (3.20 km)
Ceiling: at least 12,000 feet AGL
Clouds: few clouds at 2000 feet AGL
Weather: HZ  (haze)

METAR text: VECC 172300Z 14006KT 3200 HZ FEW020 29/28 Q0998 NOSIG
Conditions at: VECC (CALCUTTA/DUM DUM, IN) observed 2300 UTC 17 June 2019
Temperature: 29.0°C (84°F)
Dewpoint: 28.0°C (82°F) [RH = 94%]
Pressure (altimeter): 29.47 inches Hg (998.0 mb)
Winds: from the SE (140 degrees) at 7 MPH (6 knots; 3.1 m/s)
Visibility: 1.99 miles (3.20 km)
Ceiling: at least 12,000 feet AGL
Clouds: few clouds at 2000 feet AGL
Weather: HZ  (haze)

METAR text: VECC 172230Z 13005KT 3000 HZ FEW020 29/28 Q0998 NOSIG
Conditions at: VECC (CALCUTTA/DUM DUM, IN) observed 2230 UTC 17 June 2019
Temperature: 29.0°C (84°F)
Dewpoint: 28.0°C (82°F) [RH = 94%]
Pressure (altimeter): 29.47 inches Hg (998.0 mb)
Winds: from the SE (130 degrees) at 6 MPH (5 knots; 2.6 m/s)
Visibility: 1.86 miles (2.99 km)
Ceiling: at least 12,000 feet AGL
Clouds: few clouds at 2000 feet AGL
Weather: HZ  (haze)

METAR text: VECC 172200Z 13003KT 3000 HZ FEW020 29/28 Q0998 NOSIG
Conditions at: VECC (CALCUTTA/DUM DUM, IN) observed 2200 UTC 17 June 2019
Temperature: 29.0°C (84°F)
Dewpoint: 28.0°C (82°F) [RH = 94%]
Pressure (altimeter): 29.47 inches Hg (998.0 mb)
Winds: from the SE (130 degrees) at 3 MPH (3 knots; 1.5 m/s)
Visibility: 1.86 miles (2.99 km)
Ceiling: at least 12,000 feet AGL
Clouds: few clouds at 2000 feet AGL
Weather: HZ  (haze)

METAR text: VECC 172130Z 11003KT 3200 HZ FEW020 29/28 Q0998 NOSIG
Conditions at: VECC (CALCUTTA/DUM DUM, IN) observed 2130 UTC 17 June 2019
Temperature: 29.0°C (84°F)
Dewpoint: 28.0°C (82°F) [RH = 94%]
Pressure (altimeter): 29.47 inches Hg (998.0 mb)
Winds: from the ESE (110 degrees) at 3 MPH (3 knots; 1.5 m/s)
Visibility: 1.99 miles (3.20 km)
Ceiling: at least 12,000 feet AGL
Clouds: few clouds at 2000 feet AGL
Weather: HZ  (haze)

METAR text: VECC 172100Z 12005KT 3200 HZ FEW020 29/28 Q0998 NOSIG
Conditions at: VECC (CALCUTTA/DUM DUM, IN) observed 2100 UTC 17 June 2019
Temperature: 29.0°C (84°F)
Dewpoint: 28.0°C (82°F) [RH = 94%]
Pressure (altimeter): 29.47 inches Hg (998.0 mb)
Winds: from the ESE (120 degrees) at 6 MPH (5 knots; 2.6 m/s)
Visibility: 1.99 miles (3.20 km)
Ceiling: at least 12,000 feet AGL
Clouds: few clouds at 2000 feet AGL
Weather: HZ  (haze)

METAR text: VECC 172030Z 13004KT 3200 HZ FEW020 30/28 Q0998 NOSIG
Conditions at: VECC (CALCUTTA/DUM DUM, IN) observed 2030 UTC 17 June 2019
Temperature: 30.0°C (86°F)
Dewpoint: 28.0°C (82°F) [RH = 89%]
Pressure (altimeter): 29.47 inches Hg (998.0 mb)
Winds: from the SE (130 degrees) at 5 MPH (4 knots; 2.1 m/s)
Visibility: 1.99 miles (3.20 km)
Ceiling: at least 12,000 feet AGL
Clouds: few clouds at 2000 feet AGL
Weather: HZ  (haze)

METAR text: VECC 172000Z 15003KT 3200 HZ FEW020 30/29 Q0998 NOSIG
Conditions at: VECC (CALCUTTA/DUM DUM, IN) observed 2000 UTC 17 June 2019
Temperature: 30.0°C (86°F)
Dewpoint: 29.0°C (84°F) [RH = 94%]
Pressure (altimeter): 29.47 inches Hg (998.0 mb)
Winds: from the SSE (150 degrees) at 3 MPH (3 knots; 1.5 m/s)
Visibility: 1.99 miles (3.20 km)
Ceiling: at least 12,000 feet AGL
Clouds: few clouds at 2000 feet AGL
Weather: HZ  (haze)

METAR text: VECC 171930Z 17005KT 3200 HZ FEW020 30/29 Q0998 NOSIG
Conditions at: VECC (CALCUTTA/DUM DUM, IN) observed 1930 UTC 17 June 2019
Temperature: 30.0°C (86°F)
Dewpoint: 29.0°C (84°F) [RH = 94%]
Pressure (altimeter): 29.47 inches Hg (998.0 mb)
Winds: from the S (170 degrees) at 6 MPH (5 knots; 2.6 m/s)
Visibility: 1.99 miles (3.20 km)
Ceiling: at least 12,000 feet AGL
Clouds: few clouds at 2000 feet AGL
Weather: HZ  (haze)

METAR text: VECC 171900Z 18006KT 3200 HZ FEW020 30/29 Q0999 NOSIG
Conditions at: VECC (CALCUTTA/DUM DUM, IN) observed 1900 UTC 17 June 2019
Temperature: 30.0°C (86°F)
Dewpoint: 29.0°C (84°F) [RH = 94%]
Pressure (altimeter): 29.50 inches Hg (999.0 mb)
Winds: from the S (180 degrees) at 7 MPH (6 knots; 3.1 m/s)
Visibility: 1.99 miles (3.20 km)
Ceiling: at least 12,000 feet AGL
Clouds: few clouds at 2000 feet AGL
Weather: HZ  (haze)

METAR text: VECC 171830Z 16007KT 3200 HZ FEW020 30/29 Q0999 NOSIG
Conditions at: VECC (CALCUTTA/DUM DUM, IN) observed 1830 UTC 17 June 2019
Temperature: 30.0°C (86°F)
Dewpoint: 29.0°C (84°F) [RH = 94%]
Pressure (altimeter): 29.50 inches Hg (999.0 mb)
Winds: from the SSE (160 degrees) at 8 MPH (7 knots; 3.6 m/s)
Visibility: 1.99 miles (3.20 km)
Ceiling: at least 12,000 feet AGL
Clouds: few clouds at 2000 feet AGL
Weather: HZ  (haze)

METAR text: VECC 171800Z 16006KT 3200 HZ FEW020 30/29 Q1000 NOSIG
Conditions at: VECC (CALCUTTA/DUM DUM, IN) observed 1800 UTC 17 June 2019
Temperature: 30.0°C (86°F)
Dewpoint: 29.0°C (84°F) [RH = 94%]
Pressure (altimeter): 29.53 inches Hg (1000.0 mb)
Winds: from the SSE (160 degrees) at 7 MPH (6 knots; 3.1 m/s)
Visibility: 1.99 miles (3.20 km)
Ceiling: at least 12,000 feet AGL
Clouds: few clouds at 2000 feet AGL
Weather: HZ  (haze)

METAR text: VECC 171730Z 17009KT 3500 HZ FEW020 SCT100 31/29 Q1000 NOSIG
Conditions at: VECC (CALCUTTA/DUM DUM, IN) observed 1730 UTC 17 June 2019
Temperature: 31.0°C (88°F)
Dewpoint: 29.0°C (84°F) [RH = 89%]
Pressure (altimeter): 29.53 inches Hg (1000.0 mb)
Winds: from the S (170 degrees) at 10 MPH (9 knots; 4.6 m/s)
Visibility: 2.17 miles (3.49 km)
Ceiling: at least 12,000 feet AGL
Clouds: few clouds at 2000 feet AGL
scattered clouds at 10000 feet AGL
Weather: HZ  (haze)

METAR text: VECC 171700Z 18008KT 3500 HZ FEW020 BKN100 31/29 Q1000 NOSIG
Conditions at: VECC (CALCUTTA/DUM DUM, IN) observed 1700 UTC 17 June 2019
Temperature: 31.0°C (88°F)
Dewpoint: 29.0°C (84°F) [RH = 89%]
Pressure (altimeter): 29.53 inches Hg (1000.0 mb)
Winds: from the S (180 degrees) at 9 MPH (8 knots; 4.1 m/s)
Visibility: 2.17 miles (3.49 km)
Ceiling: 10000 feet AGL
Clouds: few clouds at 2000 feet AGL
broken clouds at 10000 feet AGL
Weather: HZ  (haze)

METAR text: VECC 171630Z 16007KT 3500 HZ FEW020 SCT100 31/29 Q1000 NOSIG
Conditions at: VECC (CALCUTTA/DUM DUM, IN) observed 1630 UTC 17 June 2019
Temperature: 31.0°C (88°F)
Dewpoint: 29.0°C (84°F) [RH = 89%]
Pressure (altimeter): 29.53 inches Hg (1000.0 mb)
Winds: from the SSE (160 degrees) at 8 MPH (7 knots; 3.6 m/s)
Visibility: 2.17 miles (3.49 km)
Ceiling: at least 12,000 feet AGL
Clouds: few clouds at 2000 feet AGL
scattered clouds at 10000 feet AGL
Weather: HZ  (haze)

METAR text: VECC 171600Z 17007KT 3500 HZ FEW020 SCT100 31/28 Q0999 NOSIG
Conditions at: VECC (CALCUTTA/DUM DUM, IN) observed 1600 UTC 17 June 2019
Temperature: 31.0°C (88°F)
Dewpoint: 28.0°C (82°F) [RH = 84%]
Pressure (altimeter): 29.50 inches Hg (999.0 mb)
Winds: from the S (170 degrees) at 8 MPH (7 knots; 3.6 m/s)
Visibility: 2.17 miles (3.49 km)
Ceiling: at least 12,000 feet AGL
Clouds: few clouds at 2000 feet AGL
scattered clouds at 10000 feet AGL
Weather: HZ  (haze)

METAR text: VECC 171530Z 18010KT 3500 HZ FEW020 SCT100 31/28 Q0999 NOSIG
Conditions at: VECC (CALCUTTA/DUM DUM, IN) observed 1530 UTC 17 June 2019
Temperature: 31.0°C (88°F)
Dewpoint: 28.0°C (82°F) [RH = 84%]
Pressure (altimeter): 29.50 inches Hg (999.0 mb)
Winds: from the S (180 degrees) at 12 MPH (10 knots; 5.1 m/s)
Visibility: 2.17 miles (3.49 km)
Ceiling: at least 12,000 feet AGL
Clouds: few clouds at 2000 feet AGL
scattered clouds at 10000 feet AGL
Weather: HZ  (haze)

METAR text: VECC 171500Z 18012KT 3500 HZ FEW020 SCT100 32/28 Q0998 NOSIG
Conditions at: VECC (CALCUTTA/DUM DUM, IN) observed 1500 UTC 17 June 2019
Temperature: 32.0°C (90°F)
Dewpoint: 28.0°C (82°F) [RH = 80%]
Pressure (altimeter): 29.47 inches Hg (998.0 mb)
Winds: from the S (180 degrees) at 14 MPH (12 knots; 6.2 m/s)
Visibility: 2.17 miles (3.49 km)
Ceiling: at least 12,000 feet AGL
Clouds: few clouds at 2000 feet AGL
scattered clouds at 10000 feet AGL
Weather: HZ  (haze)

METAR text: VECC 171430Z 17010KT 3500 HZ FEW020 SCT100 33/27 Q0998 NOSIG
Conditions at: VECC (CALCUTTA/DUM DUM, IN) observed 1430 UTC 17 June 2019
Temperature: 33.0°C (91°F)
Dewpoint: 27.0°C (81°F) [RH = 71%]
Pressure (altimeter): 29.47 inches Hg (998.0 mb)
Winds: from the S (170 degrees) at 12 MPH (10 knots; 5.1 m/s)
Visibility: 2.17 miles (3.49 km)
Ceiling: at least 12,000 feet AGL
Clouds: few clouds at 2000 feet AGL
scattered clouds at 10000 feet AGL
Weather: HZ  (haze)

METAR text: VECC 171400Z 16007KT 3500 HZ FEW020 SCT100 33/27 Q0998 NOSIG
Conditions at: VECC (CALCUTTA/DUM DUM, IN) observed 1400 UTC 17 June 2019
Temperature: 33.0°C (91°F)
Dewpoint: 27.0°C (81°F) [RH = 71%]
Pressure (altimeter): 29.47 inches Hg (998.0 mb)
Winds: from the SSE (160 degrees) at 8 MPH (7 knots; 3.6 m/s)
Visibility: 2.17 miles (3.49 km)
Ceiling: at least 12,000 feet AGL
Clouds: few clouds at 2000 feet AGL
scattered clouds at 10000 feet AGL
Weather: HZ  (haze)

METAR text: VECC 171330Z 17008KT 3500 HZ FEW020 SCT100 33/26 Q0998 NOSIG
Conditions at: VECC (CALCUTTA/DUM DUM, IN) observed 1330 UTC 17 June 2019
Temperature: 33.0°C (91°F)
Dewpoint: 26.0°C (79°F) [RH = 67%]
Pressure (altimeter): 29.47 inches Hg (998.0 mb)
Winds: from the S (170 degrees) at 9 MPH (8 knots; 4.1 m/s)
Visibility: 2.17 miles (3.49 km)
Ceiling: at least 12,000 feet AGL
Clouds: few clouds at 2000 feet AGL
scattered clouds at 10000 feet AGL
Weather: HZ  (haze)

METAR text: VECC 171300Z 17008KT 3500 HZ FEW020 SCT100 34/27 Q0997 NOSIG
Conditions at: VECC (CALCUTTA/DUM DUM, IN) observed 1300 UTC 17 June 2019
Temperature: 34.0°C (93°F)
Dewpoint: 27.0°C (81°F) [RH = 67%]
Pressure (altimeter): 29.44 inches Hg (997.0 mb)
Winds: from the S (170 degrees) at 9 MPH (8 knots; 4.1 m/s)
Visibility: 2.17 miles (3.49 km)
Ceiling: at least 12,000 feet AGL
Clouds: few clouds at 2000 feet AGL
scattered clouds at 10000 feet AGL
Weather: HZ  (haze)

METAR text: VECC 171230Z 18007KT 3500 HZ FEW020 SCT100 34/27 Q0997 NOSIG
Conditions at: VECC (CALCUTTA/DUM DUM, IN) observed 1230 UTC 17 June 2019
Temperature: 34.0°C (93°F)
Dewpoint: 27.0°C (81°F) [RH = 67%]
Pressure (altimeter): 29.44 inches Hg (997.0 mb)
Winds: from the S (180 degrees) at 8 MPH (7 knots; 3.6 m/s)
Visibility: 2.17 miles (3.49 km)
Ceiling: at least 12,000 feet AGL
Clouds: few clouds at 2000 feet AGL
scattered clouds at 10000 feet AGL
Weather: HZ  (haze)

METAR text: VECC 171200Z 17008KT 3500 HZ FEW020 SCT100 35/27 Q0996 NOSIG
Conditions at: VECC (CALCUTTA/DUM DUM, IN) observed 1200 UTC 17 June 2019
Temperature: 35.0°C (95°F)
Dewpoint: 27.0°C (81°F) [RH = 63%]
Pressure (altimeter): 29.41 inches Hg (996.0 mb)
Winds: from the S (170 degrees) at 9 MPH (8 knots; 4.1 m/s)
Visibility: 2.17 miles (3.49 km)
Ceiling: at least 12,000 feet AGL
Clouds: few clouds at 2000 feet AGL
scattered clouds at 10000 feet AGL
Weather: HZ  (haze)

METAR text: VECC 171130Z 17008KT 3500 HZ FEW020 SCT100 35/27 Q0996 NOSIG
Conditions at: VECC (CALCUTTA/DUM DUM, IN) observed 1130 UTC 17 June 2019
Temperature: 35.0°C (95°F)
Dewpoint: 27.0°C (81°F) [RH = 63%]
Pressure (altimeter): 29.41 inches Hg (996.0 mb)
Winds: from the S (170 degrees) at 9 MPH (8 knots; 4.1 m/s)
Visibility: 2.17 miles (3.49 km)
Ceiling: at least 12,000 feet AGL
Clouds: few clouds at 2000 feet AGL
scattered clouds at 10000 feet AGL
Weather: HZ  (haze)

METAR text: VECC 171100Z 18008KT 3500 HZ FEW020 35/27 Q0996 NOSIG
Conditions at: VECC (CALCUTTA/DUM DUM, IN) observed 1100 UTC 17 June 2019
Temperature: 35.0°C (95°F)
Dewpoint: 27.0°C (81°F) [RH = 63%]
Pressure (altimeter): 29.41 inches Hg (996.0 mb)
Winds: from the S (180 degrees) at 9 MPH (8 knots; 4.1 m/s)
Visibility: 2.17 miles (3.49 km)
Ceiling: at least 12,000 feet AGL
Clouds: few clouds at 2000 feet AGL
Weather: HZ  (haze)

METAR text: VECC 171030Z 16008KT 3500 HZ FEW020 SCT100 36/27 Q0996 NOSIG
Conditions at: VECC (CALCUTTA/DUM DUM, IN) observed 1030 UTC 17 June 2019
Temperature: 36.0°C (97°F)
Dewpoint: 27.0°C (81°F) [RH = 60%]
Pressure (altimeter): 29.41 inches Hg (996.0 mb)
Winds: from the SSE (160 degrees) at 9 MPH (8 knots; 4.1 m/s)
Visibility: 2.17 miles (3.49 km)
Ceiling: at least 12,000 feet AGL
Clouds: few clouds at 2000 feet AGL
scattered clouds at 10000 feet AGL
Weather: HZ  (haze)

METAR text: VECC 171000Z 16008KT 3500 HZ FEW020 SCT100 36/27 Q0997 NOSIG
Conditions at: VECC (CALCUTTA/DUM DUM, IN) observed 1000 UTC 17 June 2019
Temperature: 36.0°C (97°F)
Dewpoint: 27.0°C (81°F) [RH = 60%]
Pressure (altimeter): 29.44 inches Hg (997.0 mb)
Winds: from the SSE (160 degrees) at 9 MPH (8 knots; 4.1 m/s)
Visibility: 2.17 miles (3.49 km)
Ceiling: at least 12,000 feet AGL
Clouds: few clouds at 2000 feet AGL
scattered clouds at 10000 feet AGL
Weather: HZ  (haze)

METAR text: VECC 170930Z 17009KT 3500 HZ FEW020 SCT100 37/27 Q0997 NOSIG
Conditions at: VECC (CALCUTTA/DUM DUM, IN) observed 0930 UTC 17 June 2019
Temperature: 37.0°C (99°F)
Dewpoint: 27.0°C (81°F) [RH = 57%]
Pressure (altimeter): 29.44 inches Hg (997.0 mb)
Winds: from the S (170 degrees) at 10 MPH (9 knots; 4.6 m/s)
Visibility: 2.17 miles (3.49 km)
Ceiling: at least 12,000 feet AGL
Clouds: few clouds at 2000 feet AGL
scattered clouds at 10000 feet AGL
Weather: HZ  (haze)

METAR text: VECC 170900Z 17008KT 3500 HZ FEW020 SCT100 37/27 Q0998 NOSIG
Conditions at: VECC (CALCUTTA/DUM DUM, IN) observed 0900 UTC 17 June 2019
Temperature: 37.0°C (99°F)
Dewpoint: 27.0°C (81°F) [RH = 57%]
Pressure (altimeter): 29.47 inches Hg (998.0 mb)
Winds: from the S (170 degrees) at 9 MPH (8 knots; 4.1 m/s)
Visibility: 2.17 miles (3.49 km)
Ceiling: at least 12,000 feet AGL
Clouds: few clouds at 2000 feet AGL
scattered clouds at 10000 feet AGL
Weather: HZ  (haze)

METAR text: VECC 170830Z 14006KT 3600 HZ SCT020 BKN100 38/27 Q0998 NOSIG
Conditions at: VECC (CALCUTTA/DUM DUM, IN) observed 0830 UTC 17 June 2019
Temperature: 38.0°C (100°F)
Dewpoint: 27.0°C (81°F) [RH = 54%]
Pressure (altimeter): 29.47 inches Hg (998.0 mb)
Winds: from the SE (140 degrees) at 7 MPH (6 knots; 3.1 m/s)
Visibility: 2.24 miles (3.60 km)
Ceiling: 10000 feet AGL
Clouds: scattered clouds at 2000 feet AGL
broken clouds at 10000 feet AGL
Weather: HZ  (haze)

METAR text: VECC 170800Z 15004KT 3600 HZ SCT020 BKN100 37/27 Q0998 NOSIG
Conditions at: VECC (CALCUTTA/DUM DUM, IN) observed 0800 UTC 17 June 2019
Temperature: 37.0°C (99°F)
Dewpoint: 27.0°C (81°F) [RH = 57%]
Pressure (altimeter): 29.47 inches Hg (998.0 mb)
Winds: from the SSE (150 degrees) at 5 MPH (4 knots; 2.1 m/s)
Visibility: 2.24 miles (3.60 km)
Ceiling: 10000 feet AGL
Clouds: scattered clouds at 2000 feet AGL
broken clouds at 10000 feet AGL
Weather: HZ  (haze)

METAR text: VECC 170730Z 23004KT 3600 HZ SCT020 BKN100 36/27 Q0999 NOSIG
Conditions at: VECC (CALCUTTA/DUM DUM, IN) observed 0730 UTC 17 June 2019
Temperature: 36.0°C (97°F)
Dewpoint: 27.0°C (81°F) [RH = 60%]
Pressure (altimeter): 29.50 inches Hg (999.0 mb)
Winds: from the SW (230 degrees) at 5 MPH (4 knots; 2.1 m/s)
Visibility: 2.24 miles (3.60 km)
Ceiling: 10000 feet AGL
Clouds: scattered clouds at 2000 feet AGL
broken clouds at 10000 feet AGL
Weather: HZ  (haze)

METAR text: VECC 170700Z 25004KT 3600 HZ SCT020 BKN100 36/27 Q0999 NOSIG
Conditions at: VECC (CALCUTTA/DUM DUM, IN) observed 0700 UTC 17 June 2019
Temperature: 36.0°C (97°F)
Dewpoint: 27.0°C (81°F) [RH = 60%]
Pressure (altimeter): 29.50 inches Hg (999.0 mb)
Winds: from the WSW (250 degrees) at 5 MPH (4 knots; 2.1 m/s)
Visibility: 2.24 miles (3.60 km)
Ceiling: 10000 feet AGL
Clouds: scattered clouds at 2000 feet AGL
broken clouds at 10000 feet AGL
Weather: HZ  (haze)

METAR text: VECC 170630Z 24005KT 3500 HZ SCT020 BKN100 35/27 Q0999 NOSIG
Conditions at: VECC (CALCUTTA/DUM DUM, IN) observed 0630 UTC 17 June 2019
Temperature: 35.0°C (95°F)
Dewpoint: 27.0°C (81°F) [RH = 63%]
Pressure (altimeter): 29.50 inches Hg (999.0 mb)
Winds: from the WSW (240 degrees) at 6 MPH (5 knots; 2.6 m/s)
Visibility: 2.17 miles (3.49 km)
Ceiling: 10000 feet AGL
Clouds: scattered clouds at 2000 feet AGL
broken clouds at 10000 feet AGL
Weather: HZ  (haze)

METAR text: VECC 170600Z 27005KT 3500 HZ SCT020 BKN100 35/27 Q0999 NOSIG
Conditions at: VECC (CALCUTTA/DUM DUM, IN) observed 0600 UTC 17 June 2019
Temperature: 35.0°C (95°F)
Dewpoint: 27.0°C (81°F) [RH = 63%]
Pressure (altimeter): 29.50 inches Hg (999.0 mb)
Winds: from the W (270 degrees) at 6 MPH (5 knots; 2.6 m/s)
Visibility: 2.17 miles (3.49 km)
Ceiling: 10000 feet AGL
Clouds: scattered clouds at 2000 feet AGL
broken clouds at 10000 feet AGL
Weather: HZ  (haze)

METAR text: VECC 170530Z 28005KT 3500 HZ SCT020 BKN100 35/28 Q0999 NOSIG
Conditions at: VECC (CALCUTTA/DUM DUM, IN) observed 0530 UTC 17 June 2019
Temperature: 35.0°C (95°F)
Dewpoint: 28.0°C (82°F) [RH = 67%]
Pressure (altimeter): 29.50 inches Hg (999.0 mb)
Winds: from the W (280 degrees) at 6 MPH (5 knots; 2.6 m/s)
Visibility: 2.17 miles (3.49 km)
Ceiling: 10000 feet AGL
Clouds: scattered clouds at 2000 feet AGL
broken clouds at 10000 feet AGL
Weather: HZ  (haze)

METAR text: VECC 170500Z 26005KT 3500 HZ SCT020 BKN100 34/27 Q0999 NOSIG
Conditions at: VECC (CALCUTTA/DUM DUM, IN) observed 0500 UTC 17 June 2019
Temperature: 34.0°C (93°F)
Dewpoint: 27.0°C (81°F) [RH = 67%]
Pressure (altimeter): 29.50 inches Hg (999.0 mb)
Winds: from the W (260 degrees) at 6 MPH (5 knots; 2.6 m/s)
Visibility: 2.17 miles (3.49 km)
Ceiling: 10000 feet AGL
Clouds: scattered clouds at 2000 feet AGL
broken clouds at 10000 feet AGL
Weather: HZ  (haze)

METAR text: VECC 170430Z 26005KT 3500 HZ SCT020 BKN100 34/28 Q0999 NOSIG
Conditions at: VECC (CALCUTTA/DUM DUM, IN) observed 0430 UTC 17 June 2019
Temperature: 34.0°C (93°F)
Dewpoint: 28.0°C (82°F) [RH = 71%]
Pressure (altimeter): 29.50 inches Hg (999.0 mb)
Winds: from the W (260 degrees) at 6 MPH (5 knots; 2.6 m/s)
Visibility: 2.17 miles (3.49 km)
Ceiling: 10000 feet AGL
Clouds: scattered clouds at 2000 feet AGL
broken clouds at 10000 feet AGL
Weather: HZ  (haze)

METAR text: VECC 170400Z 26005KT 3500 HZ SCT020 BKN100 33/28 Q0999 NOSIG
Conditions at: VECC (CALCUTTA/DUM DUM, IN) observed 0400 UTC 17 June 2019
Temperature: 33.0°C (91°F)
Dewpoint: 28.0°C (82°F) [RH = 75%]
Pressure (altimeter): 29.50 inches Hg (999.0 mb)
Winds: from the W (260 degrees) at 6 MPH (5 knots; 2.6 m/s)
Visibility: 2.17 miles (3.49 km)
Ceiling: 10000 feet AGL
Clouds: scattered clouds at 2000 feet AGL
broken clouds at 10000 feet AGL
Weather: HZ  (haze)

METAR text: VECC 170330Z 25005KT 3500 HZ SCT020 BKN100 33/28 Q0999 NOSIG
Conditions at: VECC (CALCUTTA/DUM DUM, IN) observed 0330 UTC 17 June 2019
Temperature: 33.0°C (91°F)
Dewpoint: 28.0°C (82°F) [RH = 75%]
Pressure (altimeter): 29.50 inches Hg (999.0 mb)
Winds: from the WSW (250 degrees) at 6 MPH (5 knots; 2.6 m/s)
Visibility: 2.17 miles (3.49 km)
Ceiling: 10000 feet AGL
Clouds: scattered clouds at 2000 feet AGL
broken clouds at 10000 feet AGL
Weather: HZ  (haze)

METAR text: VECC 170300Z 26005KT 3200 HZ SCT020 BKN100 32/28 Q0999 NOSIG
Conditions at: VECC (CALCUTTA/DUM DUM, IN) observed 0300 UTC 17 June 2019
Temperature: 32.0°C (90°F)
Dewpoint: 28.0°C (82°F) [RH = 80%]
Pressure (altimeter): 29.50 inches Hg (999.0 mb)
Winds: from the W (260 degrees) at 6 MPH (5 knots; 2.6 m/s)
Visibility: 1.99 miles (3.20 km)
Ceiling: 10000 feet AGL
Clouds: scattered clouds at 2000 feet AGL
broken clouds at 10000 feet AGL
Weather: HZ  (haze)

METAR text: VECC 170230Z 24004KT 3200 HZ SCT018 BKN090 32/29 Q0999 NOSIG
Conditions at: VECC (CALCUTTA/DUM DUM, IN) observed 0230 UTC 17 June 2019
Temperature: 32.0°C (90°F)
Dewpoint: 29.0°C (84°F) [RH = 84%]
Pressure (altimeter): 29.50 inches Hg (999.0 mb)
Winds: from the WSW (240 degrees) at 5 MPH (4 knots; 2.1 m/s)
Visibility: 1.99 miles (3.20 km)
Ceiling: 9000 feet AGL
Clouds: scattered clouds at 1800 feet AGL
broken clouds at 9000 feet AGL
Weather: HZ  (haze)

METAR text: VECC 170200Z 24005KT 3200 HZ SCT018 BKN090 32/29 Q0999 NOSIG
Conditions at: VECC (CALCUTTA/DUM DUM, IN) observed 0200 UTC 17 June 2019
Temperature: 32.0°C (90°F)
Dewpoint: 29.0°C (84°F) [RH = 84%]
Pressure (altimeter): 29.50 inches Hg (999.0 mb)
Winds: from the WSW (240 degrees) at 6 MPH (5 knots; 2.6 m/s)
Visibility: 1.99 miles (3.20 km)
Ceiling: 9000 feet AGL
Clouds: scattered clouds at 1800 feet AGL
broken clouds at 9000 feet AGL
Weather: HZ  (haze)

METAR text: VECC 170130Z 22006KT 3200 -DZ SCT018 BKN090 31/29 Q0999 NOSIG
Conditions at: VECC (CALCUTTA/DUM DUM, IN) observed 0130 UTC 17 June 2019
Temperature: 31.0°C (88°F)
Dewpoint: 29.0°C (84°F) [RH = 89%]
Pressure (altimeter): 29.50 inches Hg (999.0 mb)
Winds: from the SW (220 degrees) at 7 MPH (6 knots; 3.1 m/s)
Visibility: 1.99 miles (3.20 km)
Ceiling: 9000 feet AGL
Clouds: scattered clouds at 1800 feet AGL
broken clouds at 9000 feet AGL
Weather: -DZ  (light drizzle)

METAR text: VECC 170100Z 00000KT 3500 HZ FEW020 SCT100 30/28 Q0999 NOSIG
Conditions at: VECC (CALCUTTA/DUM DUM, IN) observed 0100 UTC 17 June 2019
Temperature: 30.0°C (86°F)
Dewpoint: 28.0°C (82°F) [RH = 89%]
Pressure (altimeter): 29.50 inches Hg (999.0 mb)
Winds: calm
Visibility: 2.17 miles (3.49 km)
Ceiling: at least 12,000 feet AGL
Clouds: few clouds at 2000 feet AGL
scattered clouds at 10000 feet AGL
Weather: HZ  (haze)

METAR text: VECC 170030Z 16004KT 3500 HZ SCT018 SCT100 30/27 Q0998 NOSIG
Conditions at: VECC (CALCUTTA/DUM DUM, IN) observed 0030 UTC 17 June 2019
Temperature: 30.0°C (86°F)
Dewpoint: 27.0°C (81°F) [RH = 84%]
Pressure (altimeter): 29.47 inches Hg (998.0 mb)
Winds: from the SSE (160 degrees) at 5 MPH (4 knots; 2.1 m/s)
Visibility: 2.17 miles (3.49 km)
Ceiling: at least 12,000 feet AGL
Clouds: scattered clouds at 1800 feet AGL
scattered clouds at 10000 feet AGL
Weather: HZ  (haze)

METAR text: VECC 170000Z 16006KT 3500 HZ SCT018 SCT100 29/26 Q0998 NOSIG
Conditions at: VECC (CALCUTTA/DUM DUM, IN) observed 0000 UTC 17 June 2019
Temperature: 29.0°C (84°F)
Dewpoint: 26.0°C (79°F) [RH = 84%]
Pressure (altimeter): 29.47 inches Hg (998.0 mb)
Winds: from the SSE (160 degrees) at 7 MPH (6 knots; 3.1 m/s)
Visibility: 2.17 miles (3.49 km)
Ceiling: at least 12,000 feet AGL
Clouds: scattered clouds at 1800 feet AGL
scattered clouds at 10000 feet AGL
Weather: HZ  (haze)

METAR text: VECC 162330Z 00000KT 3500 HZ SCT018 SCT100 29/26 Q0998 NOSIG
Conditions at: VECC (CALCUTTA/DUM DUM, IN) observed 2330 UTC 16 June 2019
Temperature: 29.0°C (84°F)
Dewpoint: 26.0°C (79°F) [RH = 84%]
Pressure (altimeter): 29.47 inches Hg (998.0 mb)
Winds: calm
Visibility: 2.17 miles (3.49 km)
Ceiling: at least 12,000 feet AGL
Clouds: scattered clouds at 1800 feet AGL
scattered clouds at 10000 feet AGL
Weather: HZ  (haze)

METAR text: VECC 162300Z 22005KT 3500 HZ FEW018 SCT100 29/26 Q0998 NOSIG
Conditions at: VECC (CALCUTTA/DUM DUM, IN) observed 2300 UTC 16 June 2019
Temperature: 29.0°C (84°F)
Dewpoint: 26.0°C (79°F) [RH = 84%]
Pressure (altimeter): 29.47 inches Hg (998.0 mb)
Winds: from the SW (220 degrees) at 6 MPH (5 knots; 2.6 m/s)
Visibility: 2.17 miles (3.49 km)
Ceiling: at least 12,000 feet AGL
Clouds: few clouds at 1800 feet AGL
scattered clouds at 10000 feet AGL
Weather: HZ  (haze)

METAR text: VECC 162230Z 17007KT 3500 HZ FEW020 SCT100 28/26 Q0997 NOSIG
Conditions at: VECC (CALCUTTA/DUM DUM, IN) observed 2230 UTC 16 June 2019
Temperature: 28.0°C (82°F)
Dewpoint: 26.0°C (79°F) [RH = 89%]
Pressure (altimeter): 29.44 inches Hg (997.0 mb)
Winds: from the S (170 degrees) at 8 MPH (7 knots; 3.6 m/s)
Visibility: 2.17 miles (3.49 km)
Ceiling: at least 12,000 feet AGL
Clouds: few clouds at 2000 feet AGL
scattered clouds at 10000 feet AGL
Weather: HZ  (haze)

METAR text: VECC 162200Z 18008KT 3500 HZ FEW020 SCT100 28/26 Q0997 NOSIG
Conditions at: VECC (CALCUTTA/DUM DUM, IN) observed 2200 UTC 16 June 2019
Temperature: 28.0°C (82°F)
Dewpoint: 26.0°C (79°F) [RH = 89%]
Pressure (altimeter): 29.44 inches Hg (997.0 mb)
Winds: from the S (180 degrees) at 9 MPH (8 knots; 4.1 m/s)
Visibility: 2.17 miles (3.49 km)
Ceiling: at least 12,000 feet AGL
Clouds: few clouds at 2000 feet AGL
scattered clouds at 10000 feet AGL
Weather: HZ  (haze)

METAR text: VECC 162130Z 17008KT 3500 HZ FEW020 SCT100 28/26 Q0997 NOSIG
Conditions at: VECC (CALCUTTA/DUM DUM, IN) observed 2130 UTC 16 June 2019
Temperature: 28.0°C (82°F)
Dewpoint: 26.0°C (79°F) [RH = 89%]
Pressure (altimeter): 29.44 inches Hg (997.0 mb)
Winds: from the S (170 degrees) at 9 MPH (8 knots; 4.1 m/s)
Visibility: 2.17 miles (3.49 km)
Ceiling: at least 12,000 feet AGL
Clouds: few clouds at 2000 feet AGL
scattered clouds at 10000 feet AGL
Weather: HZ  (haze)

METAR text: VECC 162100Z 16008KT 3500 HZ FEW020 SCT100 28/26 Q0997 NOSIG
Conditions at: VECC (CALCUTTA/DUM DUM, IN) observed 2100 UTC 16 June 2019
Temperature: 28.0°C (82°F)
Dewpoint: 26.0°C (79°F) [RH = 89%]
Pressure (altimeter): 29.44 inches Hg (997.0 mb)
Winds: from the SSE (160 degrees) at 9 MPH (8 knots; 4.1 m/s)
Visibility: 2.17 miles (3.49 km)
Ceiling: at least 12,000 feet AGL
Clouds: few clouds at 2000 feet AGL
scattered clouds at 10000 feet AGL
Weather: HZ  (haze)

METAR text: VECC 162030Z 17008KT 3500 HZ FEW020 SCT100 28/26 Q0997 NOSIG
Conditions at: VECC (CALCUTTA/DUM DUM, IN) observed 2030 UTC 16 June 2019
Temperature: 28.0°C (82°F)
Dewpoint: 26.0°C (79°F) [RH = 89%]
Pressure (altimeter): 29.44 inches Hg (997.0 mb)
Winds: from the S (170 degrees) at 9 MPH (8 knots; 4.1 m/s)
Visibility: 2.17 miles (3.49 km)
Ceiling: at least 12,000 feet AGL
Clouds: few clouds at 2000 feet AGL
scattered clouds at 10000 feet AGL
Weather: HZ  (haze)

METAR text: VECC 162000Z 17008KT 3500 HZ FEW020 28/26 Q0997 NOSIG
Conditions at: VECC (CALCUTTA/DUM DUM, IN) observed 2000 UTC 16 June 2019
Temperature: 28.0°C (82°F)
Dewpoint: 26.0°C (79°F) [RH = 89%]
Pressure (altimeter): 29.44 inches Hg (997.0 mb)
Winds: from the S (170 degrees) at 9 MPH (8 knots; 4.1 m/s)
Visibility: 2.17 miles (3.49 km)
Ceiling: at least 12,000 feet AGL
Clouds: few clouds at 2000 feet AGL
Weather: HZ  (haze)

METAR text: VECC 161930Z 17010KT 3500 HZ NSC 29/27 Q0998 NOSIG
Conditions at: VECC (CALCUTTA/DUM DUM, IN) observed 1930 UTC 16 June 2019
Temperature: 29.0°C (84°F)
Dewpoint: 27.0°C (81°F) [RH = 89%]
Pressure (altimeter): 29.47 inches Hg (998.0 mb)
Winds: from the S (170 degrees) at 12 MPH (10 knots; 5.1 m/s)
Visibility: 2.17 miles (3.49 km)
Ceiling: at least 12,000 feet AGL
Clouds: sky clear below 12,000 feet AGL
Weather: HZ  (haze)

METAR text: VECC 161900Z 17010KT 3500 HZ NSC 29/27 Q0998 NOSIG
Conditions at: VECC (CALCUTTA/DUM DUM, IN) observed 1900 UTC 16 June 2019
Temperature: 29.0°C (84°F)
Dewpoint: 27.0°C (81°F) [RH = 89%]
Pressure (altimeter): 29.47 inches Hg (998.0 mb)
Winds: from the S (170 degrees) at 12 MPH (10 knots; 5.1 m/s)
Visibility: 2.17 miles (3.49 km)
Ceiling: at least 12,000 feet AGL
Clouds: sky clear below 12,000 feet AGL
Weather: HZ  (haze)

METAR text: VECC 161830Z 17010KT 3500 HZ NSC 29/27 Q0998 NOSIG
Conditions at: VECC (CALCUTTA/DUM DUM, IN) observed 1830 UTC 16 June 2019
Temperature: 29.0°C (84°F)
Dewpoint: 27.0°C (81°F) [RH = 89%]
Pressure (altimeter): 29.47 inches Hg (998.0 mb)
Winds: from the S (170 degrees) at 12 MPH (10 knots; 5.1 m/s)
Visibility: 2.17 miles (3.49 km)
Ceiling: at least 12,000 feet AGL
Clouds: sky clear below 12,000 feet AGL
Weather: HZ  (haze)

METAR text: VECC 161800Z 17008KT 3500 HZ NSC 29/27 Q0999 NOSIG
Conditions at: VECC (CALCUTTA/DUM DUM, IN) observed 1800 UTC 16 June 2019
Temperature: 29.0°C (84°F)
Dewpoint: 27.0°C (81°F) [RH = 89%]
Pressure (altimeter): 29.50 inches Hg (999.0 mb)
Winds: from the S (170 degrees) at 9 MPH (8 knots; 4.1 m/s)
Visibility: 2.17 miles (3.49 km)
Ceiling: at least 12,000 feet AGL
Clouds: sky clear below 12,000 feet AGL
Weather: HZ  (haze)

METAR text: VECC 161730Z 17008KT 3500 HZ NSC 29/27 Q0999 NOSIG
Conditions at: VECC (CALCUTTA/DUM DUM, IN) observed 1730 UTC 16 June 2019
Temperature: 29.0°C (84°F)
Dewpoint: 27.0°C (81°F) [RH = 89%]
Pressure (altimeter): 29.50 inches Hg (999.0 mb)
Winds: from the S (170 degrees) at 9 MPH (8 knots; 4.1 m/s)
Visibility: 2.17 miles (3.49 km)
Ceiling: at least 12,000 feet AGL
Clouds: sky clear below 12,000 feet AGL
Weather: HZ  (haze)

METAR text: VECC 161700Z 17007KT 3500 HZ NSC 29/27 Q0999 NOSIG
Conditions at: VECC (CALCUTTA/DUM DUM, IN) observed 1700 UTC 16 June 2019
Temperature: 29.0°C (84°F)
Dewpoint: 27.0°C (81°F) [RH = 89%]
Pressure (altimeter): 29.50 inches Hg (999.0 mb)
Winds: from the S (170 degrees) at 8 MPH (7 knots; 3.6 m/s)
Visibility: 2.17 miles (3.49 km)
Ceiling: at least 12,000 feet AGL
Clouds: sky clear below 12,000 feet AGL
Weather: HZ  (haze)

METAR text: VECC 161630Z 17008KT 3500 HZ NSC 29/27 Q0999 NOSIG
Conditions at: VECC (CALCUTTA/DUM DUM, IN) observed 1630 UTC 16 June 2019
Temperature: 29.0°C (84°F)
Dewpoint: 27.0°C (81°F) [RH = 89%]
Pressure (altimeter): 29.50 inches Hg (999.0 mb)
Winds: from the S (170 degrees) at 9 MPH (8 knots; 4.1 m/s)
Visibility: 2.17 miles (3.49 km)
Ceiling: at least 12,000 feet AGL
Clouds: sky clear below 12,000 feet AGL
Weather: HZ  (haze)

METAR text: VECC 161600Z 17008KT 3500 HZ NSC 30/27 Q0998 NOSIG
Conditions at: VECC (CALCUTTA/DUM DUM, IN) observed 1600 UTC 16 June 2019
Temperature: 30.0°C (86°F)
Dewpoint: 27.0°C (81°F) [RH = 84%]
Pressure (altimeter): 29.47 inches Hg (998.0 mb)
Winds: from the S (170 degrees) at 9 MPH (8 knots; 4.1 m/s)
Visibility: 2.17 miles (3.49 km)
Ceiling: at least 12,000 feet AGL
Clouds: sky clear below 12,000 feet AGL
Weather: HZ  (haze)

METAR text: VECC 161530Z 17010KT 3600 HZ NSC 30/26 Q0998 NOSIG
Conditions at: VECC (CALCUTTA/DUM DUM, IN) observed 1530 UTC 16 June 2019
Temperature: 30.0°C (86°F)
Dewpoint: 26.0°C (79°F) [RH = 79%]
Pressure (altimeter): 29.47 inches Hg (998.0 mb)
Winds: from the S (170 degrees) at 12 MPH (10 knots; 5.1 m/s)
Visibility: 2.24 miles (3.60 km)
Ceiling: at least 12,000 feet AGL
Clouds: sky clear below 12,000 feet AGL
Weather: HZ  (haze)

Forecast for: VECC (CALCUTTA/DUM DUM, IN)
Text: TAF VECC 172300Z 1800/1906 16008KT 2800 HZ SCT018 SCT100
Forecast period: 0000 to 0300 UTC 18 June 2019
Forecast type: FROM: standard forecast or significant change
Winds: from the SSE (160 degrees) at 9 MPH (8 knots; 4.1 m/s)
Visibility: 1.74 miles (2.80 km)
Ceiling: at least 12,000 feet AGL
Clouds: scattered clouds at 1800 feet AGL
scattered clouds at 10000 feet AGL
Weather: HZ  (haze)
Text: BECMG 1803/1805 4000 HZ
Forecast period: 0300 to 1600 UTC 18 June 2019
Forecast type: BECOMING: Conditions expected to become as follows by 0500 UTC 18 June 2019
Winds: from the SSE (160 degrees) at 9 MPH (8 knots; 4.1 m/s)
Visibility: 2.49 miles (4.01 km)
Ceiling: at least 12,000 feet AGL
Clouds: scattered clouds at 1800 feet AGL
scattered clouds at 10000 feet AGL
Weather: HZ  (haze)
Text: TEMPO 1810/1814 2000 TSRA SCT015 FEW025CB OVC090
Forecast period: 1000 to 1400 UTC 18 June 2019
Forecast type: TEMPORARY: The following changes expected for less than half the time period
Visibility: 1.24 miles (2.00 km)
Ceiling: 9000 feet AGL
Clouds: scattered clouds at 1500 feet AGL
few clouds at 2500 feet AGL
overcast cloud deck at 9000 feet AGL
Weather: TSRA  (rain associated with thunderstorm(s))
Text: BECMG 1816/1818 2800 HZ
Forecast period: 1600 UTC 18 June 2019 to 0300 UTC 19 June 2019
Forecast type: BECOMING: Conditions expected to become as follows by 1800 UTC 18 June 2019
Winds: from the SSE (160 degrees) at 9 MPH (8 knots; 4.1 m/s)
Visibility: 1.74 miles (2.80 km)
Ceiling: at least 12,000 feet AGL
Clouds: scattered clouds at 1800 feet AGL
scattered clouds at 10000 feet AGL
Weather: HZ  (haze)
Text: BECMG 1903/1905 3500 HZ
Forecast period: 0300 to 0600 UTC 19 June 2019
Forecast type: BECOMING: Conditions expected to become as follows by 0500 UTC 19 June 2019
Winds: from the SSE (160 degrees) at 9 MPH (8 knots; 4.1 m/s)
Visibility: 2.17 miles (3.49 km)
Ceiling: at least 12,000 feet AGL
Clouds: scattered clouds at 1800 feet AGL
scattered clouds at 10000 feet AGL
Weather: HZ  (haze)